sensor_id;sensor_type;location;lat;lon;timestamp;P1;durP1;ratioP1;P2;durP2;ratioP2
8415;SDS011;4245;42.120;24.732;2023-07-13T00:01:34;12.68;;;11.38;;
8415;SDS011;4245;42.120;24.732;2023-07-13T00:04:03;21.30;;;12.25;;
8415;SDS011;4245;42.120;24.732;2023-07-13T00:06:31;17.27;;;12.00;;
8415;SDS011;4245;42.120;24.732;2023-07-13T00:08:58;14.20;;;11.63;;
8415;SDS011;4245;42.120;24.732;2023-07-13T00:11:26;14.02;;;11.50;;
8415;SDS011;4245;42.120;24.732;2023-07-13T00:13:53;16.83;;;11.68;;
8415;SDS011;4245;42.120;24.732;2023-07-13T00:16:20;18.80;;;12.57;;
8415;SDS011;4245;42.120;24.732;2023-07-13T00:18:47;16.25;;;12.15;;
8415;SDS011;4245;42.120;24.732;2023-07-13T00:21:14;14.02;;;12.10;;
8415;SDS011;4245;42.120;24.732;2023-07-13T00:23:41;15.75;;;12.43;;
8415;SDS011;4245;42.120;24.732;2023-07-13T00:26:09;13.88;;;12.45;;
8415;SDS011;4245;42.120;24.732;2023-07-13T00:28:39;15.40;;;12.35;;
8415;SDS011;4245;42.120;24.732;2023-07-13T00:31:07;14.45;;;11.48;;
8415;SDS011;4245;42.120;24.732;2023-07-13T00:33:34;14.50;;;12.00;;
8415;SDS011;4245;42.120;24.732;2023-07-13T00:36:01;13.88;;;12.27;;
8415;SDS011;4245;42.120;24.732;2023-07-13T00:38:28;13.88;;;11.70;;
8415;SDS011;4245;42.120;24.732;2023-07-13T00:40:55;12.88;;;11.52;;
8415;SDS011;4245;42.120;24.732;2023-07-13T00:43:22;15.85;;;12.05;;
8415;SDS011;4245;42.120;24.732;2023-07-13T00:46:12;14.35;;;11.43;;
8415;SDS011;4245;42.120;24.732;2023-07-13T00:48:45;13.52;;;11.27;;
8415;SDS011;4245;42.120;24.732;2023-07-13T00:51:13;11.45;;;10.00;;
8415;SDS011;4245;42.120;24.732;2023-07-13T00:53:43;15.18;;;10.90;;
8415;SDS011;4245;42.120;24.732;2023-07-13T00:56:11;16.30;;;11.35;;
8415;SDS011;4245;42.120;24.732;2023-07-13T00:58:38;13.25;;;10.57;;
8415;SDS011;4245;42.120;24.732;2023-07-13T01:01:05;12.40;;;11.00;;
8415;SDS011;4245;42.120;24.732;2023-07-13T01:03:33;14.18;;;10.70;;
8415;SDS011;4245;42.120;24.732;2023-07-13T01:06:01;13.07;;;10.60;;
8415;SDS011;4245;42.120;24.732;2023-07-13T01:08:29;15.13;;;11.35;;
8415;SDS011;4245;42.120;24.732;2023-07-13T01:10:56;14.10;;;11.10;;
8415;SDS011;4245;42.120;24.732;2023-07-13T01:13:24;13.43;;;10.25;;
8415;SDS011;4245;42.120;24.732;2023-07-13T01:15:52;15.98;;;11.73;;
8415;SDS011;4245;42.120;24.732;2023-07-13T01:18:20;13.93;;;11.63;;
8415;SDS011;4245;42.120;24.732;2023-07-13T01:20:52;13.30;;;11.20;;
8415;SDS011;4245;42.120;24.732;2023-07-13T01:23:20;12.45;;;11.15;;
8415;SDS011;4245;42.120;24.732;2023-07-13T01:25:47;16.58;;;11.43;;
8415;SDS011;4245;42.120;24.732;2023-07-13T01:28:14;13.50;;;10.77;;
8415;SDS011;4245;42.120;24.732;2023-07-13T01:30:42;12.35;;;10.57;;
8415;SDS011;4245;42.120;24.732;2023-07-13T01:33:10;14.60;;;11.35;;
8415;SDS011;4245;42.120;24.732;2023-07-13T01:35:38;13.38;;;10.35;;
8415;SDS011;4245;42.120;24.732;2023-07-13T01:38:07;15.05;;;10.40;;
8415;SDS011;4245;42.120;24.732;2023-07-13T01:40:36;13.57;;;10.05;;
8415;SDS011;4245;42.120;24.732;2023-07-13T01:43:04;12.00;;;10.30;;
8415;SDS011;4245;42.120;24.732;2023-07-13T01:45:31;16.33;;;14.38;;
8415;SDS011;4245;42.120;24.732;2023-07-13T01:47:58;13.02;;;10.38;;
8415;SDS011;4245;42.120;24.732;2023-07-13T01:50:25;14.07;;;10.90;;
8415;SDS011;4245;42.120;24.732;2023-07-13T01:52:52;15.95;;;10.65;;
8415;SDS011;4245;42.120;24.732;2023-07-13T01:55:21;13.30;;;10.25;;
8415;SDS011;4245;42.120;24.732;2023-07-13T01:57:48;13.20;;;10.50;;
8415;SDS011;4245;42.120;24.732;2023-07-13T02:00:15;14.05;;;10.88;;
8415;SDS011;4245;42.120;24.732;2023-07-13T02:02:42;12.07;;;10.82;;
8415;SDS011;4245;42.120;24.732;2023-07-13T02:05:09;14.30;;;10.40;;
8415;SDS011;4245;42.120;24.732;2023-07-13T02:07:36;12.63;;;11.23;;
8415;SDS011;4245;42.120;24.732;2023-07-13T02:10:04;12.05;;;10.77;;
8415;SDS011;4245;42.120;24.732;2023-07-13T02:12:33;14.40;;;10.68;;
8415;SDS011;4245;42.120;24.732;2023-07-13T02:15:00;13.10;;;10.88;;
8415;SDS011;4245;42.120;24.732;2023-07-13T02:17:27;12.93;;;10.45;;
8415;SDS011;4245;42.120;24.732;2023-07-13T02:19:54;12.07;;;10.60;;
8415;SDS011;4245;42.120;24.732;2023-07-13T02:22:21;11.18;;;10.13;;
8415;SDS011;4245;42.120;24.732;2023-07-13T02:24:48;25.45;;;10.30;;
8415;SDS011;4245;42.120;24.732;2023-07-13T02:27:15;12.53;;;10.83;;
8415;SDS011;4245;42.120;24.732;2023-07-13T02:29:43;14.70;;;10.93;;
8415;SDS011;4245;42.120;24.732;2023-07-13T02:32:10;13.60;;;10.80;;
8415;SDS011;4245;42.120;24.732;2023-07-13T02:34:37;16.23;;;10.63;;
8415;SDS011;4245;42.120;24.732;2023-07-13T02:37:04;12.57;;;10.03;;
8415;SDS011;4245;42.120;24.732;2023-07-13T02:39:31;11.83;;;9.80;;
8415;SDS011;4245;42.120;24.732;2023-07-13T02:41:58;13.73;;;9.53;;
8415;SDS011;4245;42.120;24.732;2023-07-13T02:44:26;12.43;;;9.83;;
8415;SDS011;4245;42.120;24.732;2023-07-13T02:46:54;12.87;;;10.13;;
8415;SDS011;4245;42.120;24.732;2023-07-13T02:49:21;12.53;;;10.67;;
8415;SDS011;4245;42.120;24.732;2023-07-13T02:51:48;14.27;;;11.63;;
8415;SDS011;4245;42.120;24.732;2023-07-13T02:54:15;11.37;;;9.70;;
8415;SDS011;4245;42.120;24.732;2023-07-13T02:56:41;11.20;;;9.57;;
8415;SDS011;4245;42.120;24.732;2023-07-13T02:59:08;14.23;;;9.83;;
8415;SDS011;4245;42.120;24.732;2023-07-13T03:01:36;13.27;;;9.43;;
8415;SDS011;4245;42.120;24.732;2023-07-13T03:04:04;12.60;;;9.53;;
8415;SDS011;4245;42.120;24.732;2023-07-13T03:06:31;13.20;;;10.60;;
8415;SDS011;4245;42.120;24.732;2023-07-13T03:08:58;16.80;;;12.18;;
8415;SDS011;4245;42.120;24.732;2023-07-13T03:11:26;15.40;;;9.63;;
8415;SDS011;4245;42.120;24.732;2023-07-13T03:13:53;13.82;;;9.23;;
8415;SDS011;4245;42.120;24.732;2023-07-13T03:16:21;12.15;;;9.95;;
8415;SDS011;4245;42.120;24.732;2023-07-13T03:18:48;13.88;;;9.65;;
8415;SDS011;4245;42.120;24.732;2023-07-13T03:21:16;15.93;;;9.70;;
8415;SDS011;4245;42.120;24.732;2023-07-13T03:23:43;13.80;;;9.30;;
8415;SDS011;4245;42.120;24.732;2023-07-13T03:26:11;12.57;;;10.20;;
8415;SDS011;4245;42.120;24.732;2023-07-13T03:28:40;12.57;;;9.47;;
8415;SDS011;4245;42.120;24.732;2023-07-13T03:31:09;12.73;;;9.70;;
8415;SDS011;4245;42.120;24.732;2023-07-13T03:33:36;15.97;;;10.00;;
8415;SDS011;4245;42.120;24.732;2023-07-13T03:36:03;15.53;;;10.03;;
8415;SDS011;4245;42.120;24.732;2023-07-13T03:38:33;16.57;;;10.03;;
8415;SDS011;4245;42.120;24.732;2023-07-13T03:41:00;13.77;;;9.37;;
8415;SDS011;4245;42.120;24.732;2023-07-13T03:43:27;15.90;;;9.67;;
8415;SDS011;4245;42.120;24.732;2023-07-13T03:45:54;12.67;;;10.07;;
8415;SDS011;4245;42.120;24.732;2023-07-13T03:48:21;12.40;;;9.50;;
8415;SDS011;4245;42.120;24.732;2023-07-13T03:50:48;16.85;;;9.73;;
8415;SDS011;4245;42.120;24.732;2023-07-13T03:53:15;13.90;;;9.93;;
8415;SDS011;4245;42.120;24.732;2023-07-13T03:55:44;14.83;;;9.10;;
8415;SDS011;4245;42.120;24.732;2023-07-13T03:58:29;15.37;;;9.20;;
8415;SDS011;4245;42.120;24.732;2023-07-13T04:00:58;16.90;;;9.53;;
8415;SDS011;4245;42.120;24.732;2023-07-13T04:03:26;20.03;;;10.10;;
8415;SDS011;4245;42.120;24.732;2023-07-13T04:05:54;11.43;;;9.17;;
8415;SDS011;4245;42.120;24.732;2023-07-13T04:08:24;18.53;;;9.67;;
8415;SDS011;4245;42.120;24.732;2023-07-13T04:10:53;12.95;;;9.18;;
8415;SDS011;4245;42.120;24.732;2023-07-13T04:13:20;13.60;;;9.57;;
8415;SDS011;4245;42.120;24.732;2023-07-13T04:15:47;12.95;;;9.45;;
8415;SDS011;4245;42.120;24.732;2023-07-13T04:18:14;14.57;;;10.48;;
8415;SDS011;4245;42.120;24.732;2023-07-13T04:20:41;16.42;;;9.85;;
8415;SDS011;4245;42.120;24.732;2023-07-13T04:23:08;19.80;;;9.57;;
8415;SDS011;4245;42.120;24.732;2023-07-13T04:25:35;13.57;;;9.63;;
8415;SDS011;4245;42.120;24.732;2023-07-13T04:28:04;18.58;;;9.85;;
8415;SDS011;4245;42.120;24.732;2023-07-13T04:30:31;16.70;;;9.52;;
8415;SDS011;4245;42.120;24.732;2023-07-13T04:32:58;14.30;;;8.63;;
8415;SDS011;4245;42.120;24.732;2023-07-13T04:35:25;14.07;;;9.85;;
8415;SDS011;4245;42.120;24.732;2023-07-13T04:37:52;14.13;;;10.18;;
8415;SDS011;4245;42.120;24.732;2023-07-13T04:40:19;16.20;;;10.18;;
8415;SDS011;4245;42.120;24.732;2023-07-13T04:42:46;18.92;;;10.00;;
8415;SDS011;4245;42.120;24.732;2023-07-13T04:45:15;20.20;;;11.15;;
8415;SDS011;4245;42.120;24.732;2023-07-13T04:47:42;16.92;;;10.95;;
8415;SDS011;4245;42.120;24.732;2023-07-13T04:50:09;17.35;;;10.50;;
8415;SDS011;4245;42.120;24.732;2023-07-13T04:52:40;14.77;;;10.50;;
8415;SDS011;4245;42.120;24.732;2023-07-13T04:55:08;15.68;;;10.43;;
8415;SDS011;4245;42.120;24.732;2023-07-13T04:57:34;14.35;;;10.80;;
8415;SDS011;4245;42.120;24.732;2023-07-13T05:00:02;20.60;;;10.88;;
8415;SDS011;4245;42.120;24.732;2023-07-13T05:02:31;17.92;;;11.75;;
8415;SDS011;4245;42.120;24.732;2023-07-13T05:04:58;16.85;;;11.20;;
8415;SDS011;4245;42.120;24.732;2023-07-13T05:07:25;19.48;;;11.18;;
8415;SDS011;4245;42.120;24.732;2023-07-13T05:09:52;18.70;;;12.00;;
8415;SDS011;4245;42.120;24.732;2023-07-13T05:12:19;17.17;;;10.52;;
8415;SDS011;4245;42.120;24.732;2023-07-13T05:14:46;17.17;;;10.82;;
8415;SDS011;4245;42.120;24.732;2023-07-13T05:17:13;18.50;;;11.13;;
8415;SDS011;4245;42.120;24.732;2023-07-13T05:19:42;17.98;;;11.23;;
8415;SDS011;4245;42.120;24.732;2023-07-13T05:22:08;18.80;;;10.88;;
8415;SDS011;4245;42.120;24.732;2023-07-13T05:24:35;14.05;;;11.90;;
8415;SDS011;4245;42.120;24.732;2023-07-13T05:27:02;22.55;;;13.27;;
8415;SDS011;4245;42.120;24.732;2023-07-13T05:29:30;18.42;;;12.65;;
8415;SDS011;4245;42.120;24.732;2023-07-13T05:31:57;16.52;;;11.50;;
8415;SDS011;4245;42.120;24.732;2023-07-13T05:34:23;18.60;;;11.35;;
8415;SDS011;4245;42.120;24.732;2023-07-13T05:36:53;15.38;;;13.40;;
8415;SDS011;4245;42.120;24.732;2023-07-13T05:39:19;18.55;;;12.48;;
8415;SDS011;4245;42.120;24.732;2023-07-13T05:41:46;12.98;;;11.20;;
8415;SDS011;4245;42.120;24.732;2023-07-13T05:44:13;15.68;;;11.48;;
8415;SDS011;4245;42.120;24.732;2023-07-13T05:46:40;16.02;;;12.23;;
8415;SDS011;4245;42.120;24.732;2023-07-13T05:49:07;17.65;;;11.35;;
8415;SDS011;4245;42.120;24.732;2023-07-13T05:51:34;20.20;;;11.80;;
8415;SDS011;4245;42.120;24.732;2023-07-13T05:54:02;12.45;;;11.13;;
8415;SDS011;4245;42.120;24.732;2023-07-13T05:56:29;16.15;;;10.90;;
8415;SDS011;4245;42.120;24.732;2023-07-13T05:58:56;17.30;;;11.55;;
8415;SDS011;4245;42.120;24.732;2023-07-13T06:01:23;16.30;;;10.75;;
8415;SDS011;4245;42.120;24.732;2023-07-13T06:03:49;16.98;;;12.48;;
8415;SDS011;4245;42.120;24.732;2023-07-13T06:06:16;17.33;;;12.93;;
8415;SDS011;4245;42.120;24.732;2023-07-13T06:08:43;14.85;;;11.40;;
8415;SDS011;4245;42.120;24.732;2023-07-13T06:11:14;18.48;;;12.73;;
8415;SDS011;4245;42.120;24.732;2023-07-13T06:13:42;15.32;;;11.23;;
8415;SDS011;4245;42.120;24.732;2023-07-13T06:16:10;14.55;;;11.27;;
8415;SDS011;4245;42.120;24.732;2023-07-13T06:18:38;17.58;;;12.40;;
8415;SDS011;4245;42.120;24.732;2023-07-13T06:21:06;14.65;;;10.80;;
8415;SDS011;4245;42.120;24.732;2023-07-13T06:23:34;18.13;;;11.88;;
8415;SDS011;4245;42.120;24.732;2023-07-13T06:26:01;15.88;;;11.70;;
8415;SDS011;4245;42.120;24.732;2023-07-13T06:28:29;14.80;;;11.27;;
8415;SDS011;4245;42.120;24.732;2023-07-13T06:30:56;17.35;;;11.30;;
8415;SDS011;4245;42.120;24.732;2023-07-13T06:33:23;14.57;;;10.90;;
8415;SDS011;4245;42.120;24.732;2023-07-13T06:35:50;14.40;;;11.07;;
8415;SDS011;4245;42.120;24.732;2023-07-13T06:38:17;15.68;;;10.98;;
8415;SDS011;4245;42.120;24.732;2023-07-13T06:40:44;16.05;;;11.73;;
8415;SDS011;4245;42.120;24.732;2023-07-13T06:43:11;15.13;;;10.98;;
8415;SDS011;4245;42.120;24.732;2023-07-13T06:45:57;16.42;;;10.77;;
8415;SDS011;4245;42.120;24.732;2023-07-13T06:48:24;13.40;;;10.73;;
8415;SDS011;4245;42.120;24.732;2023-07-13T06:50:51;15.10;;;10.57;;
8415;SDS011;4245;42.120;24.732;2023-07-13T06:53:19;13.05;;;10.02;;
8415;SDS011;4245;42.120;24.732;2023-07-13T06:55:46;21.55;;;13.68;;
8415;SDS011;4245;42.120;24.732;2023-07-13T06:58:14;15.27;;;12.75;;
8415;SDS011;4245;42.120;24.732;2023-07-13T07:00:42;13.27;;;11.73;;
8415;SDS011;4245;42.120;24.732;2023-07-13T07:03:10;13.05;;;11.63;;
8415;SDS011;4245;42.120;24.732;2023-07-13T07:05:37;17.30;;;11.80;;
8415;SDS011;4245;42.120;24.732;2023-07-13T07:08:04;17.98;;;11.57;;
8415;SDS011;4245;42.120;24.732;2023-07-13T07:10:31;20.42;;;11.07;;
8415;SDS011;4245;42.120;24.732;2023-07-13T07:12:58;12.93;;;11.10;;
8415;SDS011;4245;42.120;24.732;2023-07-13T07:15:25;16.63;;;10.90;;
8415;SDS011;4245;42.120;24.732;2023-07-13T07:17:52;12.90;;;10.63;;
8415;SDS011;4245;42.120;24.732;2023-07-13T07:20:20;12.57;;;11.10;;
8415;SDS011;4245;42.120;24.732;2023-07-13T07:22:47;14.70;;;11.18;;
8415;SDS011;4245;42.120;24.732;2023-07-13T07:25:14;16.58;;;11.00;;
8415;SDS011;4245;42.120;24.732;2023-07-13T07:27:41;14.55;;;11.00;;
8415;SDS011;4245;42.120;24.732;2023-07-13T07:30:08;13.45;;;10.05;;
8415;SDS011;4245;42.120;24.732;2023-07-13T07:32:36;16.25;;;11.13;;
8415;SDS011;4245;42.120;24.732;2023-07-13T07:35:03;13.77;;;10.90;;
8415;SDS011;4245;42.120;24.732;2023-07-13T07:37:32;15.30;;;10.50;;
8415;SDS011;4245;42.120;24.732;2023-07-13T07:39:58;13.60;;;10.48;;
8415;SDS011;4245;42.120;24.732;2023-07-13T07:42:25;13.63;;;11.05;;
8415;SDS011;4245;42.120;24.732;2023-07-13T07:44:52;16.27;;;11.60;;
8415;SDS011;4245;42.120;24.732;2023-07-13T07:47:19;11.38;;;10.27;;
8415;SDS011;4245;42.120;24.732;2023-07-13T07:49:46;15.45;;;11.02;;
8415;SDS011;4245;42.120;24.732;2023-07-13T07:52:12;12.27;;;10.05;;
8415;SDS011;4245;42.120;24.732;2023-07-13T07:54:41;15.73;;;10.68;;
8415;SDS011;4245;42.120;24.732;2023-07-13T07:57:07;14.90;;;10.50;;
8415;SDS011;4245;42.120;24.732;2023-07-13T07:59:35;15.18;;;13.55;;
8415;SDS011;4245;42.120;24.732;2023-07-13T08:02:03;18.23;;;15.45;;
8415;SDS011;4245;42.120;24.732;2023-07-13T08:04:30;15.60;;;12.15;;
8415;SDS011;4245;42.120;24.732;2023-07-13T08:06:56;13.90;;;10.15;;
8415;SDS011;4245;42.120;24.732;2023-07-13T08:09:23;18.13;;;10.18;;
8415;SDS011;4245;42.120;24.732;2023-07-13T08:11:51;14.45;;;10.05;;
8415;SDS011;4245;42.120;24.732;2023-07-13T08:14:19;13.82;;;10.10;;
8415;SDS011;4245;42.120;24.732;2023-07-13T08:16:46;11.38;;;10.18;;
8415;SDS011;4245;42.120;24.732;2023-07-13T08:19:13;14.55;;;9.93;;
8415;SDS011;4245;42.120;24.732;2023-07-13T08:21:40;14.23;;;9.95;;
8415;SDS011;4245;42.120;24.732;2023-07-13T08:24:08;15.00;;;10.02;;
8415;SDS011;4245;42.120;24.732;2023-07-13T08:26:35;10.95;;;9.82;;
8415;SDS011;4245;42.120;24.732;2023-07-13T08:29:03;14.27;;;10.25;;
8415;SDS011;4245;42.120;24.732;2023-07-13T08:31:29;11.55;;;10.15;;
8415;SDS011;4245;42.120;24.732;2023-07-13T08:33:56;13.75;;;10.02;;
8415;SDS011;4245;42.120;24.732;2023-07-13T08:36:24;14.55;;;10.05;;
8415;SDS011;4245;42.120;24.732;2023-07-13T08:38:51;12.45;;;9.65;;
8415;SDS011;4245;42.120;24.732;2023-07-13T08:41:18;16.13;;;10.02;;
8415;SDS011;4245;42.120;24.732;2023-07-13T08:43:47;13.60;;;9.93;;
8415;SDS011;4245;42.120;24.732;2023-07-13T08:46:18;12.88;;;9.75;;
8415;SDS011;4245;42.120;24.732;2023-07-13T08:48:50;12.63;;;10.07;;
8415;SDS011;4245;42.120;24.732;2023-07-13T08:51:23;11.23;;;9.70;;
8415;SDS011;4245;42.120;24.732;2023-07-13T08:53:57;14.85;;;9.75;;
8415;SDS011;4245;42.120;24.732;2023-07-13T08:56:28;15.88;;;9.75;;
8415;SDS011;4245;42.120;24.732;2023-07-13T08:58:57;15.00;;;10.73;;
8415;SDS011;4245;42.120;24.732;2023-07-13T09:01:30;20.23;;;9.90;;
8415;SDS011;4245;42.120;24.732;2023-07-13T09:04:14;12.63;;;9.27;;
8415;SDS011;4245;42.120;24.732;2023-07-13T09:06:49;11.35;;;9.30;;
8415;SDS011;4245;42.120;24.732;2023-07-13T09:09:27;17.27;;;8.80;;
8415;SDS011;4245;42.120;24.732;2023-07-13T09:12:09;11.68;;;8.85;;
8415;SDS011;4245;42.120;24.732;2023-07-13T09:14:44;11.50;;;9.27;;
8415;SDS011;4245;42.120;24.732;2023-07-13T09:17:16;15.50;;;9.60;;
8415;SDS011;4245;42.120;24.732;2023-07-13T09:19:46;11.15;;;8.73;;
8415;SDS011;4245;42.120;24.732;2023-07-13T09:22:20;12.98;;;8.57;;
8415;SDS011;4245;42.120;24.732;2023-07-13T09:24:57;12.63;;;9.23;;
8415;SDS011;4245;42.120;24.732;2023-07-13T09:27:30;21.20;;;11.73;;
8415;SDS011;4245;42.120;24.732;2023-07-13T09:30:07;9.82;;;8.75;;
8415;SDS011;4245;42.120;24.732;2023-07-13T09:32:51;12.05;;;8.45;;
8415;SDS011;4245;42.120;24.732;2023-07-13T09:35:19;15.70;;;9.13;;
8415;SDS011;4245;42.120;24.732;2023-07-13T09:37:48;10.90;;;8.52;;
8415;SDS011;4245;42.120;24.732;2023-07-13T09:40:17;14.50;;;8.48;;
8415;SDS011;4245;42.120;24.732;2023-07-13T09:42:51;13.93;;;8.20;;
8415;SDS011;4245;42.120;24.732;2023-07-13T09:45:26;16.52;;;11.40;;
8415;SDS011;4245;42.120;24.732;2023-07-13T09:48:02;13.18;;;7.80;;
8415;SDS011;4245;42.120;24.732;2023-07-13T09:50:31;11.80;;;8.45;;
8415;SDS011;4245;42.120;24.732;2023-07-13T09:52:58;15.40;;;11.15;;
8415;SDS011;4245;42.120;24.732;2023-07-13T09:55:29;11.18;;;8.23;;
8415;SDS011;4245;42.120;24.732;2023-07-13T09:57:57;13.40;;;8.43;;
8415;SDS011;4245;42.120;24.732;2023-07-13T10:00:30;12.02;;;7.55;;
8415;SDS011;4245;42.120;24.732;2023-07-13T10:03:05;7.93;;;7.13;;
8415;SDS011;4245;42.120;24.732;2023-07-13T10:05:43;13.35;;;8.02;;
8415;SDS011;4245;42.120;24.732;2023-07-13T10:08:18;12.88;;;7.28;;
8415;SDS011;4245;42.120;24.732;2023-07-13T10:10:51;10.07;;;6.68;;
8415;SDS011;4245;42.120;24.732;2023-07-13T10:13:24;7.85;;;6.30;;
8415;SDS011;4245;42.120;24.732;2023-07-13T10:15:54;10.23;;;7.00;;
8415;SDS011;4245;42.120;24.732;2023-07-13T10:18:25;9.15;;;6.25;;
8415;SDS011;4245;42.120;24.732;2023-07-13T10:20:54;8.32;;;6.65;;
8415;SDS011;4245;42.120;24.732;2023-07-13T10:23:26;8.63;;;6.50;;
8415;SDS011;4245;42.120;24.732;2023-07-13T10:25:58;9.07;;;6.53;;
8415;SDS011;4245;42.120;24.732;2023-07-13T10:28:27;8.73;;;6.32;;
8415;SDS011;4245;42.120;24.732;2023-07-13T10:30:58;11.27;;;6.30;;
8415;SDS011;4245;42.120;24.732;2023-07-13T10:33:28;7.03;;;5.85;;
8415;SDS011;4245;42.120;24.732;2023-07-13T10:35:56;15.63;;;6.18;;
8415;SDS011;4245;42.120;24.732;2023-07-13T10:38:30;12.27;;;6.25;;
8415;SDS011;4245;42.120;24.732;2023-07-13T10:40:58;12.10;;;5.65;;
8415;SDS011;4245;42.120;24.732;2023-07-13T10:43:31;10.18;;;5.55;;
8415;SDS011;4245;42.120;24.732;2023-07-13T10:46:03;8.10;;;6.47;;
8415;SDS011;4245;42.120;24.732;2023-07-13T10:48:34;7.13;;;5.68;;
8415;SDS011;4245;42.120;24.732;2023-07-13T10:51:03;9.48;;;6.18;;
8415;SDS011;4245;42.120;24.732;2023-07-13T10:53:33;11.63;;;6.38;;
8415;SDS011;4245;42.120;24.732;2023-07-13T10:56:02;7.93;;;6.13;;
8415;SDS011;4245;42.120;24.732;2023-07-13T10:58:34;8.57;;;5.82;;
8415;SDS011;4245;42.120;24.732;2023-07-13T11:01:03;7.68;;;5.85;;
8415;SDS011;4245;42.120;24.732;2023-07-13T11:03:37;7.43;;;5.63;;
8415;SDS011;4245;42.120;24.732;2023-07-13T11:06:15;8.77;;;5.43;;
8415;SDS011;4245;42.120;24.732;2023-07-13T11:08:51;9.77;;;6.70;;
8415;SDS011;4245;42.120;24.732;2023-07-13T11:11:34;6.50;;;5.45;;
8415;SDS011;4245;42.120;24.732;2023-07-13T11:14:03;13.77;;;10.85;;
8415;SDS011;4245;42.120;24.732;2023-07-13T11:16:37;13.52;;;12.23;;
8415;SDS011;4245;42.120;24.732;2023-07-13T11:22:15;8.65;;;5.53;;
8415;SDS011;4245;42.120;24.732;2023-07-13T11:25:27;7.40;;;5.90;;
8415;SDS011;4245;42.120;24.732;2023-07-13T11:28:06;7.22;;;5.38;;
8415;SDS011;4245;42.120;24.732;2023-07-13T11:30:47;8.70;;;5.40;;
8415;SDS011;4245;42.120;24.732;2023-07-13T11:33:16;7.00;;;5.57;;
8415;SDS011;4245;42.120;24.732;2023-07-13T11:35:49;8.15;;;5.65;;
8415;SDS011;4245;42.120;24.732;2023-07-13T11:38:20;7.93;;;5.90;;
8415;SDS011;4245;42.120;24.732;2023-07-13T11:40:50;10.25;;;5.45;;
8415;SDS011;4245;42.120;24.732;2023-07-13T11:43:20;10.05;;;5.55;;
8415;SDS011;4245;42.120;24.732;2023-07-13T11:45:48;6.63;;;5.63;;
8415;SDS011;4245;42.120;24.732;2023-07-13T11:48:20;8.15;;;5.25;;
8415;SDS011;4245;42.120;24.732;2023-07-13T11:50:53;10.30;;;5.65;;
8415;SDS011;4245;42.120;24.732;2023-07-13T11:53:24;7.18;;;5.20;;
8415;SDS011;4245;42.120;24.732;2023-07-13T11:55:54;9.18;;;5.32;;
8415;SDS011;4245;42.120;24.732;2023-07-13T11:58:22;10.60;;;5.47;;
8415;SDS011;4245;42.120;24.732;2023-07-13T12:00:53;6.95;;;4.90;;
8415;SDS011;4245;42.120;24.732;2023-07-13T12:03:24;7.32;;;5.30;;
8415;SDS011;4245;42.120;24.732;2023-07-13T12:05:57;12.60;;;5.13;;
8415;SDS011;4245;42.120;24.732;2023-07-13T12:08:26;9.00;;;5.00;;
8415;SDS011;4245;42.120;24.732;2023-07-13T12:10:56;8.88;;;4.72;;
8415;SDS011;4245;42.120;24.732;2023-07-13T12:13:26;16.92;;;5.10;;
8415;SDS011;4245;42.120;24.732;2023-07-13T12:15:54;16.25;;;5.57;;
8415;SDS011;4245;42.120;24.732;2023-07-13T12:18:23;12.32;;;5.13;;
8415;SDS011;4245;42.120;24.732;2023-07-13T12:20:58;9.70;;;5.78;;
8415;SDS011;4245;42.120;24.732;2023-07-13T12:23:29;7.93;;;5.38;;
8415;SDS011;4245;42.120;24.732;2023-07-13T12:25:59;7.45;;;5.00;;
8415;SDS011;4245;42.120;24.732;2023-07-13T12:28:31;9.75;;;5.13;;
8415;SDS011;4245;42.120;24.732;2023-07-13T12:31:00;7.65;;;4.80;;
8415;SDS011;4245;42.120;24.732;2023-07-13T12:33:29;10.57;;;5.18;;
8415;SDS011;4245;42.120;24.732;2023-07-13T12:35:59;10.48;;;5.03;;
8415;SDS011;4245;42.120;24.732;2023-07-13T12:38:29;15.68;;;5.57;;
8415;SDS011;4245;42.120;24.732;2023-07-13T12:40:57;10.00;;;4.88;;
8415;SDS011;4245;42.120;24.732;2023-07-13T12:43:24;10.82;;;5.75;;
8415;SDS011;4245;42.120;24.732;2023-07-13T12:45:56;10.93;;;4.97;;
8415;SDS011;4245;42.120;24.732;2023-07-13T12:48:25;15.35;;;5.45;;
8415;SDS011;4245;42.120;24.732;2023-07-13T12:50:53;12.30;;;5.00;;
8415;SDS011;4245;42.120;24.732;2023-07-13T12:53:23;10.68;;;5.65;;
8415;SDS011;4245;42.120;24.732;2023-07-13T12:55:57;9.27;;;5.85;;
8415;SDS011;4245;42.120;24.732;2023-07-13T12:58:26;10.02;;;6.28;;
8415;SDS011;4245;42.120;24.732;2023-07-13T13:00:55;10.20;;;6.03;;
8415;SDS011;4245;42.120;24.732;2023-07-13T13:03:26;16.63;;;6.38;;
8415;SDS011;4245;42.120;24.732;2023-07-13T13:05:57;11.82;;;6.53;;
8415;SDS011;4245;42.120;24.732;2023-07-13T13:08:30;12.68;;;6.40;;
8415;SDS011;4245;42.120;24.732;2023-07-13T13:10:57;12.00;;;5.97;;
8415;SDS011;4245;42.120;24.732;2023-07-13T13:13:24;9.85;;;6.45;;
8415;SDS011;4245;42.120;24.732;2023-07-13T13:15:51;9.10;;;5.70;;
8415;SDS011;4245;42.120;24.732;2023-07-13T13:18:19;8.25;;;6.10;;
8415;SDS011;4245;42.120;24.732;2023-07-13T13:20:47;10.02;;;6.22;;
8415;SDS011;4245;42.120;24.732;2023-07-13T13:23:16;13.18;;;6.18;;
8415;SDS011;4245;42.120;24.732;2023-07-13T13:25:46;11.02;;;6.35;;
8415;SDS011;4245;42.120;24.732;2023-07-13T13:28:15;14.00;;;5.75;;
8415;SDS011;4245;42.120;24.732;2023-07-13T13:30:43;16.30;;;6.68;;
8415;SDS011;4245;42.120;24.732;2023-07-13T13:33:11;11.25;;;6.00;;
8415;SDS011;4245;42.120;24.732;2023-07-13T13:35:39;9.25;;;6.10;;
8415;SDS011;4245;42.120;24.732;2023-07-13T13:38:09;11.55;;;5.60;;
8415;SDS011;4245;42.120;24.732;2023-07-13T13:40:39;12.57;;;5.85;;
8415;SDS011;4245;42.120;24.732;2023-07-13T13:43:15;9.65;;;5.93;;
8415;SDS011;4245;42.120;24.732;2023-07-13T13:45:43;14.95;;;6.50;;
8415;SDS011;4245;42.120;24.732;2023-07-13T13:48:14;14.30;;;5.80;;
8415;SDS011;4245;42.120;24.732;2023-07-13T13:50:43;10.15;;;5.60;;
8415;SDS011;4245;42.120;24.732;2023-07-13T13:53:10;8.07;;;5.55;;
8415;SDS011;4245;42.120;24.732;2023-07-13T13:55:39;10.27;;;5.60;;
8415;SDS011;4245;42.120;24.732;2023-07-13T13:58:07;12.57;;;6.07;;
8415;SDS011;4245;42.120;24.732;2023-07-13T14:00:35;11.15;;;6.13;;
8415;SDS011;4245;42.120;24.732;2023-07-13T14:03:03;12.38;;;6.43;;
8415;SDS011;4245;42.120;24.732;2023-07-13T14:05:32;16.88;;;12.02;;
8415;SDS011;4245;42.120;24.732;2023-07-13T14:07:59;14.85;;;6.43;;
8415;SDS011;4245;42.120;24.732;2023-07-13T14:10:26;8.50;;;6.13;;
8415;SDS011;4245;42.120;24.732;2023-07-13T14:12:53;14.38;;;6.60;;
8415;SDS011;4245;42.120;24.732;2023-07-13T14:15:24;12.38;;;7.40;;
8415;SDS011;4245;42.120;24.732;2023-07-13T14:17:53;14.73;;;6.82;;
8415;SDS011;4245;42.120;24.732;2023-07-13T14:20:21;13.10;;;6.15;;
8415;SDS011;4245;42.120;24.732;2023-07-13T14:22:50;11.68;;;6.43;;
8415;SDS011;4245;42.120;24.732;2023-07-13T14:25:20;11.40;;;6.53;;
8415;SDS011;4245;42.120;24.732;2023-07-13T14:27:48;13.70;;;6.05;;
8415;SDS011;4245;42.120;24.732;2023-07-13T14:30:18;8.27;;;5.78;;
8415;SDS011;4245;42.120;24.732;2023-07-13T14:32:47;17.77;;;6.68;;
8415;SDS011;4245;42.120;24.732;2023-07-13T14:35:21;15.13;;;6.35;;
8415;SDS011;4245;42.120;24.732;2023-07-13T14:37:49;12.52;;;6.10;;
8415;SDS011;4245;42.120;24.732;2023-07-13T14:40:17;15.23;;;6.65;;
8415;SDS011;4245;42.120;24.732;2023-07-13T14:42:48;17.40;;;6.30;;
8415;SDS011;4245;42.120;24.732;2023-07-13T14:45:15;10.40;;;6.78;;
8415;SDS011;4245;42.120;24.732;2023-07-13T14:47:44;14.80;;;6.50;;
8415;SDS011;4245;42.120;24.732;2023-07-13T14:50:12;13.65;;;6.75;;
8415;SDS011;4245;42.120;24.732;2023-07-13T14:52:42;14.10;;;6.32;;
8415;SDS011;4245;42.120;24.732;2023-07-13T14:55:10;14.55;;;6.18;;
8415;SDS011;4245;42.120;24.732;2023-07-13T14:57:38;16.77;;;6.15;;